Portada
METAR-TAF:

METAR-TAF

Aeroports :

Asaluyeh, Iran

latitud: 27-22-46N, longitud: 52-44-15E, altitud: 8 m

Observació

L'informe es va fer fa 3 hores i 17 minuts, a les 19:00 UTC
Vent calma
Temperatura 19°C
Humitat 83%
Pressió 1016 hPa
Visibilitat 10 km o més
Núvols disperses a una alçada de 4000 ft

METAR: OIBP 011900Z 00000KT 9999 SCT040 19/16 Q1015 A2999

Hora: 01:47 (22:17 UTC)

Pronòstic

L'informe es va fer fa 1 hora i 47 minuts, a les 20:30 UTC
Pronòstic vàlid del 01 a les 21 UTC al 02 a les 06 UTC
Vent 8 kt del Nord
Visibilitat: 7000 m
Escasses núvols a una alçada de 4000 ft
Temporalment
l' 01 a les 22 UTC al 02 a les 04 UTC
Vent 8 kt del Est/Nord-Est
Visibilitat: 3000 m
Escasses núvols a una alçada de 3000 ft, Cumulonimbus.
Núvols disperses a una alçada de 3500 ft
boirina

TAF: OIBP 012030Z 0121/0206 35008KT 7000 FEW040 TEMPO 0122/0204 06008KT 3000 BR FEW030CB SCT035

Observacions i pronòstics meteorològics de més de 4000 aeroports (METAR i TAF).

Les estacions disponibles són els punts grocs i vermells al mapa.

Posi el ratolí al punt desitjat per veure el nom de l'estació.

Feu clic per veure les observacions i els pronòstics meteorològics.

Per canviar el mapa: feu clic els botons verds amb una creu de color negre per apropar; al botó verd amb un guió per allunyar la imatge; o en les fletxes verdes per a mapes adjacents.


METAR-TAF: